Time;durP1;ratioP1;P1;durP2;ratioP2;P2;SDS_P1;SDS_P2;PMS_P1;PMS_P2;Temp;Humidity;BMP_temperature;BMP_pressure;BME280_temperature;BME280_humidity;BME280_pressure;Samples;Min_cycle;Max_cycle;Signal;HPM_P1;HPM_P2
2022/01/21 00:00:42;;;;;;;33.50;2.27;;;;;;;1.28;100.00;98796.41;5118646;28;20937;-76
2022/01/21 00:03:09;;;;;;;13.53;1.47;;;;;;;1.25;100.00;98789.69;5119506;28;20696;-77
2022/01/21 00:05:35;;;;;;;27.20;1.87;;;;;;;1.45;100.00;98795.22;5121828;28;20623;-77
2022/01/21 00:08:02;;;;;;;9.17;1.10;;;;;;;1.46;100.00;98783.66;5122842;28;21136;-77
2022/01/21 00:10:30;;;;;;;41.13;2.30;;;;;;;1.27;100.00;98779.78;5118734;28;20853;-76
2022/01/21 00:12:58;;;;;;;8.47;0.80;;;;;;;1.38;100.00;98800.38;5118016;28;20593;-76
2022/01/21 00:15:24;;;;;;;38.13;2.40;;;;;;;1.65;100.00;98812.06;5122173;28;20593;-76
2022/01/21 00:17:51;;;;;;;34.77;2.23;;;;;;;1.50;100.00;98821.78;5126174;28;20616;-77
2022/01/21 00:31:16;;;;;;;18.53;1.37;;;;;;;0.90;100.00;98825.41;5125732;28;20596;-76
2022/01/21 00:33:42;;;;;;;29.70;1.80;;;;;;;1.08;100.00;98823.22;5123380;28;20622;-77
2022/01/21 00:36:09;;;;;;;10.47;1.03;;;;;;;1.00;100.00;98827.78;5121979;28;20621;-76
2022/01/21 00:38:36;;;;;;;32.87;2.33;;;;;;;1.15;100.00;98825.97;5125229;28;20694;-76
2022/01/21 00:41:07;;;;;;;10.30;1.10;;;;;;;1.51;100.00;98828.69;5125314;28;20626;-76
2022/01/21 00:43:43;;;;;;;51.57;2.90;;;;;;;1.65;100.00;98841.03;5122027;28;20604;-77
2022/01/21 00:46:10;;;;;;;32.20;2.20;;;;;;;1.44;100.00;98838.31;5122920;28;20686;-76
2022/01/21 00:48:36;;;;;;;19.73;1.50;;;;;;;1.32;100.00;98837.16;5123122;28;20627;-76
2022/01/21 00:51:03;;;;;;;12.77;0.97;;;;;;;1.09;100.00;98835.41;5122984;28;20645;-76
2022/01/21 00:53:30;;;;;;;33.43;1.97;;;;;;;1.25;100.00;98849.38;5125326;28;20596;-76
2022/01/21 00:55:56;;;;;;;20.07;1.50;;;;;;;1.58;100.00;98842.75;5119536;28;20603;-76
2022/01/21 00:58:25;;;;;;;25.20;1.57;;;;;;;1.72;100.00;98841.94;5123020;28;20607;-76
2022/01/21 01:00:52;;;;;;;37.60;2.03;;;;;;;1.95;100.00;98852.34;5121323;28;20600;-76
2022/01/21 01:03:19;;;;;;;27.27;1.50;;;;;;;1.99;100.00;98854.41;5121387;28;20638;-76
2022/01/21 01:05:47;;;;;;;48.70;3.40;;;;;;;1.99;100.00;98866.75;5124034;28;20622;-76
2022/01/21 01:08:13;;;;;;;6.13;0.63;;;;;;;1.96;100.00;98867.94;5123844;28;20632;-77
2022/01/21 01:10:48;;;;;;;34.93;2.00;;;;;;;1.87;100.00;98874.31;5120703;28;21204;-76
2022/01/21 01:21:42;;;;;;;17.83;1.20;;;;;;;2.11;100.00;98894.25;5122512;28;20800;-76
2022/01/21 01:29:33;;;;;;;49.43;2.97;;;;;;;2.27;100.00;98895.84;5123279;28;20626;-76
2022/01/21 01:32:03;;;;;;;37.37;2.33;;;;;;;2.16;100.00;98895.38;5123564;28;20675;-76
2022/01/21 01:34:29;;;;;;;33.90;1.77;;;;;;;2.15;100.00;98891.09;5122039;28;20604;-76
2022/01/21 01:36:58;;;;;;;20.23;1.63;;;;;;;2.26;100.00;98896.88;5119669;28;20626;-77
2022/01/21 01:39:33;;;;;;;12.13;0.57;;;;;;;2.24;100.00;98896.22;5122997;28;20608;-76
2022/01/21 01:42:17;;;;;;;21.27;1.43;;;;;;;2.18;100.00;98903.88;5123662;28;20618;-76
2022/01/21 01:50:28;;;;;;;20.57;1.47;;;;;;;2.42;100.00;98894.00;5123383;28;20597;-76
2022/01/21 01:52:55;;;;;;;29.03;1.97;;;;;;;2.55;100.00;98892.31;5123815;28;20682;-76
2022/01/21 01:55:22;;;;;;;22.80;1.63;;;;;;;2.45;100.00;98899.72;5115214;28;20605;-76
2022/01/21 01:57:48;;;;;;;30.53;1.37;;;;;;;2.47;100.00;98899.53;5122897;28;20607;-77
2022/01/21 02:00:17;;;;;;;32.50;2.30;;;;;;;2.50;100.00;98893.88;5122440;28;20588;-77
2022/01/21 02:02:45;;;;;;;22.83;1.63;;;;;;;2.44;100.00;98902.56;5119526;28;20613;-76
2022/01/21 02:05:12;;;;;;;41.60;3.00;;;;;;;2.57;100.00;98895.56;5119202;28;20634;-76
2022/01/21 02:07:39;;;;;;;52.80;3.30;;;;;;;2.58;100.00;98891.13;5123756;28;20603;-76
2022/01/21 02:10:06;;;;;;;47.37;2.70;;;;;;;2.66;100.00;98896.28;5124008;28;20622;-76
2022/01/21 02:12:33;;;;;;;45.93;3.30;;;;;;;2.71;100.00;98894.72;5119935;28;20609;-77
2022/01/21 02:15:01;;;;;;;27.30;1.83;;;;;;;2.80;100.00;98889.28;5119198;28;20650;-77
2022/01/21 02:23:08;;;;;;;44.47;2.83;;;;;;;2.79;100.00;98911.41;5121858;28;20604;-77
2022/01/21 02:25:34;;;;;;;16.03;1.53;;;;;;;2.83;100.00;98913.47;5115318;28;20618;-77
2022/01/21 02:28:01;;;;;;;70.63;3.73;;;;;;;2.80;100.00;98916.50;5123635;28;20607;-77
2022/01/21 02:30:28;;;;;;;18.50;1.50;;;;;;;2.71;100.00;98910.53;5119892;28;20604;-77
2022/01/21 02:32:56;;;;;;;44.73;3.40;;;;;;;2.66;100.00;98917.38;5120874;28;20658;-77
2022/01/21 02:35:24;;;;;;;26.70;2.00;;;;;;;2.55;100.00;98926.59;5122368;28;20612;-77
2022/01/21 02:37:51;;;;;;;31.10;2.63;;;;;;;2.45;100.00;98933.16;5125746;28;21086;-76
2022/01/21 02:40:20;;;;;;;73.60;4.93;;;;;;;2.42;100.00;98917.72;5122419;28;20604;-76
2022/01/21 02:42:47;;;;;;;34.97;2.40;;;;;;;2.21;100.00;98931.69;5119160;28;20609;-77
2022/01/21 02:45:15;;;;;;;28.73;2.47;;;;;;;2.12;100.00;98923.06;5119078;28;20612;-77
2022/01/21 02:47:43;;;;;;;32.57;2.17;;;;;;;2.31;100.00;98926.94;5122051;28;20943;-77
2022/01/21 02:50:11;;;;;;;19.30;1.30;;;;;;;2.16;100.00;98926.16;5122040;28;20604;-77
2022/01/21 02:52:53;;;;;;;26.80;1.80;;;;;;;2.20;100.00;98924.78;5120406;28;20599;-76
2022/01/21 02:55:21;;;;;;;51.17;3.40;;;;;;;2.30;100.00;98932.38;5123189;28;20619;-76
2022/01/21 02:57:48;;;;;;;26.93;1.53;;;;;;;2.34;100.00;98928.38;5123258;28;20592;-76
2022/01/21 03:00:16;;;;;;;39.03;2.93;;;;;;;2.29;100.00;98928.13;5121588;28;20859;-77
2022/01/21 03:02:43;;;;;;;38.77;2.77;;;;;;;2.29;100.00;98938.69;5118178;28;20642;-77
2022/01/21 03:05:14;;;;;;;9.70;1.20;;;;;;;2.26;100.00;98942.47;5119840;28;20605;-76
2022/01/21 03:07:40;;;;;;;43.53;2.77;;;;;;;2.41;100.00;98940.66;5119440;28;20764;-76
2022/01/21 03:10:07;;;;;;;18.20;1.53;;;;;;;2.50;100.00;98954.53;5121271;28;20604;-76
2022/01/21 03:12:36;;;;;;;18.70;1.93;;;;;;;2.40;100.00;98949.56;5123979;28;20596;-76
2022/01/21 03:15:03;;;;;;;44.93;2.60;;;;;;;2.57;100.00;98940.41;5123392;28;20610;-77
2022/01/21 03:17:30;;;;;;;19.13;1.60;;;;;;;2.62;100.00;98945.94;5120524;28;20615;-77
2022/01/21 03:19:57;;;;;;;32.20;2.87;;;;;;;2.66;100.00;98943.75;5119445;28;20674;-77
2022/01/21 03:22:23;;;;;;;51.90;3.70;;;;;;;2.66;100.00;98957.75;5120990;28;20608;-77
2022/01/21 03:24:50;;;;;;;25.73;2.03;;;;;;;2.66;100.00;98955.09;5116372;28;20593;-77
2022/01/21 03:27:17;;;;;;;49.77;4.03;;;;;;;2.48;100.00;98959.16;5119074;28;20608;-76
2022/01/21 03:29:46;;;;;;;20.33;1.83;;;;;;;2.62;100.00;98956.50;5123176;28;20596;-77
2022/01/21 03:32:12;;;;;;;10.93;1.20;;;;;;;2.59;100.00;98963.97;5122140;28;20592;-77
2022/01/21 03:34:39;;;;;;;48.77;3.23;;;;;;;2.67;100.00;98962.03;5119588;28;21140;-77
2022/01/21 03:37:06;;;;;;;47.83;3.23;;;;;;;2.65;100.00;98968.50;5119695;28;20604;-76
2022/01/21 03:39:33;;;;;;;33.63;2.20;;;;;;;2.59;100.00;98966.59;5122017;28;20612;-76
2022/01/21 03:41:59;;;;;;;30.67;1.87;;;;;;;2.51;100.00;98971.97;5122932;28;20595;-77
2022/01/21 03:44:26;;;;;;;29.10;2.53;;;;;;;2.44;100.00;98974.56;5121743;28;20600;-76
2022/01/21 03:46:54;;;;;;;27.80;2.47;;;;;;;2.49;100.00;98979.25;5122551;28;20622;-77
2022/01/21 03:49:21;;;;;;;18.80;1.77;;;;;;;2.53;100.00;98972.63;5120176;28;21166;-77
2022/01/21 03:51:47;;;;;;;36.83;2.90;;;;;;;2.49;100.00;98973.97;5122364;28;20658;-77
2022/01/21 03:54:14;;;;;;;24.60;1.83;;;;;;;2.37;100.00;98970.19;5123155;28;20600;-77
2022/01/21 03:56:40;;;;;;;23.27;1.93;;;;;;;2.35;100.00;98977.47;5122980;28;20628;-76
2022/01/21 03:59:07;;;;;;;30.43;1.90;;;;;;;2.31;100.00;98968.28;5123733;28;20596;-77
2022/01/21 04:01:34;;;;;;;67.83;4.37;;;;;;;2.33;100.00;98971.56;5125678;28;20635;-76
2022/01/21 04:04:03;;;;;;;45.67;2.73;;;;;;;2.03;100.00;98981.31;5126504;28;20603;-77
2022/01/21 04:06:29;;;;;;;47.73;2.73;;;;;;;2.10;100.00;98977.75;5123034;28;20636;-77
2022/01/21 04:08:56;;;;;;;37.30;2.40;;;;;;;2.18;100.00;98985.59;5122791;28;21051;-76
2022/01/21 04:11:23;;;;;;;50.97;2.83;;;;;;;2.34;100.00;98991.66;5124121;28;20677;-77
2022/01/21 04:13:51;;;;;;;19.07;1.90;;;;;;;2.31;100.00;98984.94;5126147;28;20637;-77
2022/01/21 04:16:18;;;;;;;33.80;2.30;;;;;;;2.26;100.00;98983.84;5123507;28;20603;-77
2022/01/21 04:18:45;;;;;;;36.20;2.47;;;;;;;2.22;100.00;98988.66;5121397;28;20654;-76
2022/01/21 04:21:13;;;;;;;71.50;4.13;;;;;;;2.33;100.00;98984.72;5120781;28;20612;-76
2022/01/21 04:23:39;;;;;;;49.10;3.10;;;;;;;2.32;100.00;98988.41;5120651;28;20634;-77
2022/01/21 04:26:06;;;;;;;30.83;2.00;;;;;;;2.17;100.00;98999.75;5112194;28;20623;-76
2022/01/21 04:28:33;;;;;;;35.40;2.27;;;;;;;2.21;100.00;99002.03;5120561;28;20631;-76
2022/01/21 04:31:00;;;;;;;18.93;1.33;;;;;;;2.26;100.00;99007.56;5120938;28;20588;-76
2022/01/21 04:33:26;;;;;;;26.87;2.70;;;;;;;2.35;100.00;99019.66;5122146;28;20595;-76
2022/01/21 04:35:53;;;;;;;23.13;1.90;;;;;;;2.15;100.00;99017.56;5120673;28;20615;-76
2022/01/21 04:38:23;;;;;;;20.80;1.43;;;;;;;2.14;100.00;99018.56;5122974;28;20596;-77
2022/01/21 04:40:56;;;;;;;30.43;1.97;;;;;;;2.17;100.00;99018.19;5124139;28;20608;-76
2022/01/21 04:48:51;;;;;;;16.40;1.37;;;;;;;1.76;100.00;99024.91;5120664;28;20619;-77
2022/01/21 04:51:21;;;;;;;19.30;1.10;;;;;;;1.91;100.00;99031.00;5122453;28;20599;-76
2022/01/21 04:53:49;;;;;;;31.27;2.43;;;;;;;1.87;100.00;99042.06;5122788;28;20616;-77
2022/01/21 04:56:17;;;;;;;23.07;1.87;;;;;;;1.93;100.00;99038.72;5120647;28;20604;-77
2022/01/21 04:58:44;;;;;;;17.63;1.60;;;;;;;2.06;100.00;99037.09;5120279;28;20615;-76
2022/01/21 05:01:12;;;;;;;32.87;2.53;;;;;;;2.13;100.00;99043.28;5121381;28;20741;-77
2022/01/21 05:03:40;;;;;;;27.30;2.20;;;;;;;2.28;100.00;99040.66;5121461;28;20592;-77
2022/01/21 05:06:07;;;;;;;25.90;2.03;;;;;;;2.30;100.00;99051.00;5121027;28;20613;-78
2022/01/21 05:08:42;;;;;;;32.50;2.47;;;;;;;2.29;100.00;99060.72;5123792;28;20603;-77
2022/01/21 05:11:12;;;;;;;28.60;2.77;;;;;;;2.20;100.00;99063.66;5123351;28;20626;-77
2022/01/21 05:13:42;;;;;;;42.40;3.07;;;;;;;2.14;100.00;99060.72;5120357;28;21149;-77
2022/01/21 05:16:18;;;;;;;20.03;2.27;;;;;;;1.99;100.00;99059.91;5120906;28;20608;-77
2022/01/21 05:18:44;;;;;;;36.50;2.87;;;;;;;2.13;100.00;99059.09;5122441;28;20927;-77
2022/01/21 05:21:11;;;;;;;8.40;1.23;;;;;;;2.24;100.00;99064.91;5120884;28;20622;-77
2022/01/21 05:23:38;;;;;;;26.57;2.03;;;;;;;2.27;100.00;99065.38;5120613;28;20603;-77
2022/01/21 05:26:04;;;;;;;36.50;2.47;;;;;;;2.29;100.00;99067.84;5118987;28;20610;-77
2022/01/21 05:28:33;;;;;;;73.43;4.53;;;;;;;2.32;100.00;99078.81;5122151;28;20629;-77
2022/01/21 05:30:59;;;;;;;20.30;1.47;;;;;;;2.28;100.00;99068.81;5120980;28;20596;-77
2022/01/21 05:33:26;;;;;;;18.90;1.40;;;;;;;2.22;100.00;99078.28;5124100;28;20611;-77
2022/01/21 05:35:53;;;;;;;46.80;3.10;;;;;;;2.15;100.00;99080.81;5125539;28;20599;-77
2022/01/21 05:38:20;;;;;;;23.90;2.50;;;;;;;2.28;100.00;99084.63;5125314;28;21060;-77
2022/01/21 05:40:47;;;;;;;52.70;3.90;;;;;;;2.29;100.00;99083.66;5121894;28;20609;-77
2022/01/21 05:43:14;;;;;;;36.43;2.43;;;;;;;2.31;100.00;99081.63;5121477;28;20630;-77
2022/01/21 05:48:30;;;;;;;48.00;2.83;;;;;;;2.35;100.00;99085.56;5120693;28;20634;-77
2022/01/21 05:50:56;;;;;;;55.47;3.10;;;;;;;2.05;100.00;99085.53;5119890;28;20968;-77
2022/01/21 05:53:23;;;;;;;40.63;2.83;;;;;;;2.07;100.00;99088.00;5123429;28;20599;-77
2022/01/21 05:55:50;;;;;;;49.07;3.70;;;;;;;2.24;100.00;99076.28;5117186;28;20618;-77
2022/01/21 05:58:17;;;;;;;39.03;2.90;;;;;;;2.26;100.00;99084.81;5121910;28;20628;-78
2022/01/21 06:00:48;;;;;;;27.07;2.50;;;;;;;2.33;100.00;99092.81;5120783;28;20597;-77
2022/01/21 06:03:16;;;;;;;26.50;1.90;;;;;;;2.32;100.00;99088.56;5120319;28;20588;-77
2022/01/21 06:05:44;;;;;;;70.73;5.13;;;;;;;2.33;100.00;99092.81;5123222;28;20604;-77
2022/01/21 06:08:11;;;;;;;63.00;4.67;;;;;;;2.39;100.00;99085.00;5123002;28;20830;-77
2022/01/21 06:10:38;;;;;;;37.80;2.73;;;;;;;2.43;100.00;99090.72;5110652;28;20639;-75
2022/01/21 06:13:05;;;;;;;27.23;2.20;;;;;;;2.44;100.00;99095.00;5110749;28;20601;-74
2022/01/21 06:15:32;;;;;;;62.23;3.97;;;;;;;2.46;100.00;99095.63;5111978;28;20592;-74
2022/01/21 06:18:00;;;;;;;26.40;2.03;;;;;;;2.41;100.00;99105.91;5125847;28;20612;-74
2022/01/21 06:20:27;;;;;;;50.47;4.10;;;;;;;2.33;100.00;99103.34;5119861;28;20633;-74
2022/01/21 06:22:53;;;;;;;17.43;1.97;;;;;;;2.37;100.00;99102.00;5121502;28;20608;-74
2022/01/21 06:25:20;;;;;;;33.87;2.60;;;;;;;2.28;100.00;99108.38;5114611;28;20601;-74
2022/01/21 06:27:47;;;;;;;42.40;3.43;;;;;;;2.32;100.00;99107.00;5123515;28;20607;-74
2022/01/21 06:30:14;;;;;;;37.67;3.20;;;;;;;2.36;100.00;99113.53;5122955;28;20607;-74
2022/01/21 06:32:41;;;;;;;28.70;2.87;;;;;;;2.34;100.00;99110.28;5120985;28;20604;-74
2022/01/21 06:35:11;;;;;;;34.20;2.70;;;;;;;2.36;100.00;99110.91;5121178;28;20601;-74
2022/01/21 06:37:38;;;;;;;38.63;3.30;;;;;;;2.33;100.00;99111.25;5121770;28;20585;-74
2022/01/21 06:40:07;;;;;;;36.40;3.43;;;;;;;2.36;100.00;99116.16;5121493;28;20603;-75
2022/01/21 06:42:34;;;;;;;72.70;5.50;;;;;;;2.31;100.00;99122.00;5124407;28;20618;-74
2022/01/21 06:45:01;;;;;;;34.07;2.80;;;;;;;2.28;100.00;99125.00;5123489;28;20599;-75
2022/01/21 06:47:29;;;;;;;32.00;2.60;;;;;;;2.35;100.00;99125.91;5120793;28;20608;-74
2022/01/21 06:49:58;;;;;;;51.13;3.60;;;;;;;2.34;100.00;99137.47;5118025;28;20612;-75
2022/01/21 06:52:27;;;;;;;58.47;5.03;;;;;;;2.40;100.00;99133.28;5121253;28;20596;-75
2022/01/21 06:54:54;;;;;;;35.77;3.00;;;;;;;2.34;100.00;99134.81;5117137;28;20646;-75
2022/01/21 06:57:21;;;;;;;49.40;4.57;;;;;;;2.29;100.00;99141.63;5119827;28;20639;-74
2022/01/21 06:59:48;;;;;;;62.70;4.73;;;;;;;2.29;100.00;99145.06;5121402;28;20615;-75
2022/01/21 07:02:17;;;;;;;44.50;2.53;;;;;;;2.25;100.00;99154.34;5122733;28;20600;-74
2022/01/21 07:04:44;;;;;;;58.03;5.23;;;;;;;2.29;100.00;99142.44;5118814;28;20617;-74
2022/01/21 07:07:11;;;;;;;43.50;3.30;;;;;;;2.38;100.00;99148.47;5117105;28;20942;-74
2022/01/21 07:09:39;;;;;;;52.43;3.87;;;;;;;2.46;100.00;99148.38;5110163;28;20613;-74
2022/01/21 07:12:06;;;;;;;34.27;3.10;;;;;;;2.43;100.00;99146.09;5109856;28;20642;-74
2022/01/21 07:14:33;;;;;;;55.13;5.20;;;;;;;2.30;100.00;99149.34;5109831;28;20644;-74
2022/01/21 07:17:00;;;;;;;70.27;5.27;;;;;;;2.34;100.00;99148.00;5117083;28;20597;-75
2022/01/21 07:19:26;;;;;;;57.63;4.77;;;;;;;2.37;100.00;99146.81;5118433;28;20603;-75
2022/01/21 07:21:53;;;;;;;51.20;7.93;;;;;;;2.44;100.00;99151.19;5117075;28;20592;-74
2022/01/21 07:24:20;;;;;;;31.83;4.30;;;;;;;2.45;100.00;99152.00;5118054;28;20593;-75
2022/01/21 07:26:48;;;;;;;69.80;5.83;;;;;;;2.48;100.00;99156.91;5117619;28;20600;-74
2022/01/21 07:29:14;;;;;;;30.80;3.40;;;;;;;2.47;100.00;99157.94;5118832;28;20593;-75
2022/01/21 07:31:41;;;;;;;53.90;4.33;;;;;;;2.50;100.00;99154.94;5121594;28;20649;-74
2022/01/21 07:34:08;;;;;;;58.97;6.40;;;;;;;2.52;100.00;99158.19;5121825;28;21008;-75
2022/01/21 07:36:35;;;;;;;68.73;5.27;;;;;;;2.54;100.00;99166.72;5118377;28;20605;-75
2022/01/21 07:39:02;;;;;;;32.63;2.60;;;;;;;2.59;100.00;99152.03;5117049;28;20624;-75
2022/01/21 07:41:29;;;;;;;65.90;5.30;;;;;;;2.54;100.00;99164.09;5120301;28;20701;-75
2022/01/21 07:43:57;;;;;;;75.67;6.27;;;;;;;2.54;100.00;99156.19;5121678;28;20619;-75
2022/01/21 07:46:24;;;;;;;63.47;4.70;;;;;;;2.53;100.00;99149.28;5119841;28;20592;-75
2022/01/21 07:48:51;;;;;;;60.47;4.50;;;;;;;2.44;100.00;99150.38;5117744;28;20683;-74
2022/01/21 07:51:18;;;;;;;64.63;4.83;;;;;;;2.60;100.00;99151.00;5117736;28;20597;-75
2022/01/21 07:53:45;;;;;;;63.33;6.03;;;;;;;2.72;100.00;99154.81;5119455;28;21008;-75
2022/01/21 07:56:11;;;;;;;88.53;7.27;;;;;;;2.82;100.00;99149.25;5117721;28;20606;-77
2022/01/21 07:58:38;;;;;;;57.10;4.23;;;;;;;2.79;100.00;99159.34;5116682;28;20724;-75
2022/01/21 08:01:06;;;;;;;41.53;4.17;;;;;;;2.69;100.00;99141.19;5117795;28;21169;-75
2022/01/21 08:03:33;;;;;;;49.63;4.33;;;;;;;2.86;100.00;99152.38;5120713;28;20619;-74
2022/01/21 08:06:00;;;;;;;43.50;4.10;;;;;;;2.87;100.00;99149.56;5121240;28;20592;-75
2022/01/21 08:08:27;;;;;;;42.00;3.97;;;;;;;2.85;100.00;99130.44;5119371;28;20622;-74
2022/01/21 08:10:54;;;;;;;42.57;3.53;;;;;;;2.79;100.00;99123.25;5117991;28;21162;-75
2022/01/21 08:13:21;;;;;;;66.83;5.73;;;;;;;2.90;100.00;99130.72;5118703;28;20616;-74
2022/01/21 08:15:48;;;;;;;53.30;4.73;;;;;;;2.77;100.00;99129.72;5120719;28;20615;-75
2022/01/21 08:18:17;;;;;;;32.87;3.07;;;;;;;2.81;100.00;99125.72;5122318;28;20625;-75
2022/01/21 08:20:43;;;;;;;60.33;4.80;;;;;;;2.88;100.00;99124.00;5118886;28;20634;-74
2022/01/21 08:23:10;;;;;;;51.30;4.23;;;;;;;2.90;100.00;99128.06;5122700;28;20596;-75
2022/01/21 08:25:37;;;;;;;44.57;4.20;;;;;;;2.92;100.00;99135.78;5113968;28;20637;-75
2022/01/21 08:28:04;;;;;;;89.93;6.87;;;;;;;2.88;100.00;99130.06;5122208;28;20603;-75
2022/01/21 08:30:31;;;;;;;50.20;4.50;;;;;;;2.92;100.00;99141.06;5117563;28;20615;-74
2022/01/21 08:32:58;;;;;;;82.33;5.60;;;;;;;2.92;100.00;99127.88;5116559;28;20609;-74
2022/01/21 08:35:27;;;;;;;44.77;3.87;;;;;;;2.89;100.00;99129.06;5118963;28;20605;-75
2022/01/21 08:37:54;;;;;;;55.67;5.20;;;;;;;2.87;100.00;99130.25;5125473;28;20603;-74
2022/01/21 08:40:20;;;;;;;36.50;4.37;;;;;;;2.95;100.00;99123.06;5124919;28;20583;-74
2022/01/21 08:42:47;;;;;;;65.80;4.97;;;;;;;2.56;100.00;99143.66;5121168;28;20620;-74
2022/01/21 08:45:14;;;;;;;53.17;4.27;;;;;;;2.50;100.00;99144.38;5120955;28;20584;-74
2022/01/21 08:47:42;;;;;;;80.87;5.87;;;;;;;2.59;100.00;99146.75;5158657;27;20592;-74
2022/01/21 08:50:11;;;;;;;46.53;4.40;;;;;;;2.76;100.00;99160.56;5123522;28;20607;-74
2022/01/21 08:52:41;;;;;;;62.17;4.93;;;;;;;2.76;100.00;99154.44;5120330;28;20626;-74
2022/01/21 08:55:10;;;;;;;84.80;6.27;;;;;;;2.81;100.00;99163.47;5116988;28;20604;-74
2022/01/21 08:57:41;;;;;;;57.30;4.77;;;;;;;2.57;100.00;99161.09;5124867;28;20603;-74
2022/01/21 09:00:11;;;;;;;42.70;3.87;;;;;;;2.57;100.00;99163.72;5123816;28;20619;-74
2022/01/21 09:02:37;;;;;;;82.63;6.73;;;;;;;2.69;100.00;99168.38;5121501;28;20596;-73
2022/01/21 09:05:05;;;;;;;60.13;5.40;;;;;;;2.68;100.00;99171.19;5121089;28;20628;-74
2022/01/21 09:07:32;;;;;;;80.03;5.63;;;;;;;2.81;100.00;99162.66;5123443;28;21205;-74
2022/01/21 09:10:01;;;;;;;56.80;4.77;;;;;;;2.61;100.00;99159.72;5124266;28;20603;-73
2022/01/21 09:12:28;;;;;;;49.80;4.30;;;;;;;2.55;100.00;99153.38;5122040;28;20620;-74
2022/01/21 09:14:55;;;;;;;61.10;4.90;;;;;;;2.77;100.00;99167.47;5119377;28;20612;-73
2022/01/21 09:17:22;;;;;;;27.77;3.00;;;;;;;2.56;100.00;99167.38;5122554;28;20613;-74
2022/01/21 09:19:49;;;;;;;54.30;5.20;;;;;;;2.78;100.00;99169.13;5123482;28;20612;-74
2022/01/21 09:22:15;;;;;;;39.63;4.20;;;;;;;2.69;100.00;99175.50;5123948;28;20629;-74
2022/01/21 09:24:42;;;;;;;45.40;4.17;;;;;;;2.75;100.00;99176.56;5116199;28;20612;-74
2022/01/21 09:27:10;;;;;;;84.67;6.00;;;;;;;2.66;100.00;99178.50;5119246;28;20612;-74
2022/01/21 09:29:37;;;;;;;48.37;4.67;;;;;;;2.75;100.00;99177.41;5123805;28;20599;-74
2022/01/21 09:32:05;;;;;;;92.20;7.57;;;;;;;2.65;100.00;99176.84;5124379;28;20595;-74
2022/01/21 09:34:32;;;;;;;55.30;4.77;;;;;;;2.64;100.00;99170.75;5121070;28;20641;-74
2022/01/21 09:37:01;;;;;;;48.07;4.73;;;;;;;2.76;100.00;99176.38;5121967;28;20596;-74
2022/01/21 09:39:30;;;;;;;77.10;6.13;;;;;;;3.04;100.00;99164.16;5123848;28;20604;-74
2022/01/21 09:41:59;;;;;;;81.83;6.20;;;;;;;2.76;100.00;99176.38;5124752;28;20637;-74
2022/01/21 09:44:28;;;;;;;53.87;4.57;;;;;;;2.72;100.00;99185.69;5123444;28;20592;-74
2022/01/21 09:46:57;;;;;;;43.67;4.80;;;;;;;2.74;100.00;99186.31;5122468;28;20593;-74
2022/01/21 09:49:27;;;;;;;34.53;4.37;;;;;;;2.82;100.00;99180.94;5122143;28;20605;-74
2022/01/21 09:51:56;;;;;;;22.57;3.00;;;;;;;2.94;100.00;99176.03;5126894;28;20698;-74
2022/01/21 09:54:24;;;;;;;60.37;6.30;;;;;;;2.91;100.00;99179.81;5120664;28;20627;-74
2022/01/21 09:56:53;;;;;;;39.97;5.03;;;;;;;2.74;100.00;99167.84;5121735;28;20745;-74
2022/01/21 09:59:23;;;;;;;60.17;5.27;;;;;;;2.71;100.00;99176.13;5122586;28;20604;-74
2022/01/21 10:01:53;;;;;;;80.07;6.13;;;;;;;2.76;100.00;99175.56;5124953;28;20592;-75
2022/01/21 10:04:21;;;;;;;58.57;5.40;;;;;;;2.88;100.00;99174.91;5122776;28;21025;-74
2022/01/21 10:06:48;;;;;;;40.47;3.63;;;;;;;2.98;100.00;99175.47;5121149;28;20608;-74
2022/01/21 10:09:16;;;;;;;28.10;3.53;;;;;;;3.03;100.00;99173.06;5120326;28;20658;-74
2022/01/21 10:11:48;;;;;;;57.57;5.50;;;;;;;3.07;100.00;99171.72;5124483;28;20608;-74
2022/01/21 10:14:15;;;;;;;76.07;5.27;;;;;;;3.01;100.00;99174.28;5123586;28;20612;-74
2022/01/21 10:16:43;;;;;;;45.07;3.73;;;;;;;2.89;100.00;99176.56;5121253;28;20611;-74
2022/01/21 10:19:12;;;;;;;46.60;4.53;;;;;;;2.87;100.00;99168.03;5120984;28;20588;-74
2022/01/21 10:21:42;;;;;;;33.33;2.50;;;;;;;2.94;100.00;99157.56;5111649;28;20604;-74
2022/01/21 10:24:11;;;;;;;74.13;6.30;;;;;;;2.58;100.00;99155.66;5114391;28;20612;-74
2022/01/21 10:26:47;;;;;;;26.47;2.97;;;;;;;2.77;100.00;99156.91;5119006;28;20616;-74
2022/01/21 10:29:14;;;;;;;34.40;3.57;;;;;;;2.95;100.00;99157.34;5115789;28;20635;-74
2022/01/21 10:31:52;;;;;;;30.23;4.17;;;;;;;2.72;100.00;99146.91;5115725;28;20611;-74
2022/01/21 10:34:27;;;;;;;58.70;4.43;;;;;;;2.90;100.00;99151.00;5121681;28;20606;-74
2022/01/21 10:36:57;;;;;;;23.10;2.60;;;;;;;3.13;100.00;99156.97;5119560;28;20626;-74
2022/01/21 10:39:30;;;;;;;56.23;5.23;;;;;;;3.03;100.00;99146.69;5121503;28;20612;-74
2022/01/21 10:41:59;;;;;;;15.77;2.33;;;;;;;2.95;100.00;99143.34;5123659;28;20595;-74
2022/01/21 10:44:28;;;;;;;30.67;3.57;;;;;;;3.13;100.00;99128.75;5122432;28;20592;-74
2022/01/21 10:47:02;;;;;;;13.73;1.87;;;;;;;3.05;100.00;99133.31;5120480;28;21191;-74
2022/01/21 10:49:31;;;;;;;20.77;2.80;;;;;;;3.01;100.00;99124.13;5123106;28;20887;-74
2022/01/21 10:51:58;;;;;;;26.57;2.67;;;;;;;3.05;100.00;99112.22;5122044;28;20619;-74
2022/01/21 10:54:30;;;;;;;20.07;2.57;;;;;;;2.79;100.00;99102.16;5117038;28;20592;-74
2022/01/21 10:57:11;;;;;;;39.33;3.80;;;;;;;2.94;100.00;99097.66;5118537;28;20646;-74
2022/01/21 10:59:52;;;;;;;50.47;4.00;;;;;;;3.02;100.00;99097.56;5123067;28;20821;-74
2022/01/21 11:02:35;;;;;;;61.30;4.90;;;;;;;2.88;100.00;99090.47;5126008;28;21458;-74
2022/01/21 11:05:09;;;;;;;35.97;4.13;;;;;;;2.86;100.00;99092.50;5126304;28;20619;-74
2022/01/21 11:07:48;;;;;;;40.63;3.77;;;;;;;3.08;100.00;99091.53;5124875;28;20608;-74
2022/01/21 11:10:51;;;;;;;36.00;4.10;;;;;;;3.21;100.00;99078.50;5125333;28;20622;-74
2022/01/21 11:13:30;;;;;;;51.87;4.40;;;;;;;3.01;100.00;99089.81;5127038;28;20622;-74
2022/01/21 11:15:58;;;;;;;52.73;4.40;;;;;;;3.22;100.00;99088.03;5125075;28;20620;-74
2022/01/21 11:18:25;;;;;;;39.20;3.30;;;;;;;3.04;100.00;99079.72;5126418;28;20627;-74
2022/01/21 11:21:04;;;;;;;24.43;2.83;;;;;;;2.91;100.00;99070.84;5126542;28;20612;-74
2022/01/21 11:23:33;;;;;;;55.37;5.43;;;;;;;3.21;100.00;99067.94;5124387;28;21331;-74
2022/01/21 11:26:03;;;;;;;59.50;4.50;;;;;;;2.90;100.00;99075.31;5123668;28;20612;-74
2022/01/21 11:28:38;;;;;;;62.23;5.33;;;;;;;3.36;100.00;99072.34;5121238;28;20616;-74
2022/01/21 11:31:06;;;;;;;29.67;2.10;;;;;;;2.82;100.00;99053.47;5122294;28;20606;-75
2022/01/21 11:33:33;;;;;;;38.03;3.47;;;;;;;2.87;100.00;99062.50;5119761;28;20815;-74
2022/01/21 11:36:03;;;;;;;50.13;4.20;;;;;;;2.86;100.00;99055.56;5118994;28;20601;-74
2022/01/21 11:38:31;;;;;;;49.87;4.20;;;;;;;2.95;100.00;99045.72;5122022;28;20597;-74
2022/01/21 11:40:59;;;;;;;27.23;2.53;;;;;;;2.75;100.00;99045.50;5125211;28;20600;-75
2022/01/21 11:43:30;;;;;;;60.43;4.33;;;;;;;3.07;100.00;99041.56;5124879;28;20596;-75
2022/01/21 11:46:20;;;;;;;17.33;1.70;;;;;;;3.31;100.00;99043.03;5122578;28;20592;-75
2022/01/21 11:48:51;;;;;;;39.70;3.50;;;;;;;3.28;100.00;99040.78;5144774;27;20605;-75
2022/01/21 11:51:23;;;;;;;30.67;2.60;;;;;;;3.11;100.00;99050.75;5110369;28;20608;-75
2022/01/21 11:53:52;;;;;;;19.13;2.27;;;;;;;3.12;100.00;99034.75;5112921;28;20616;-74
2022/01/21 11:56:39;;;;;;;46.80;4.13;;;;;;;3.36;100.00;99032.72;5110274;28;20601;-75
2022/01/21 11:59:09;;;;;;;42.50;3.53;;;;;;;3.54;100.00;99033.91;5110172;28;20623;-75
2022/01/21 12:01:39;;;;;;;32.70;2.57;;;;;;;3.10;100.00;99028.81;5110104;28;20604;-74
2022/01/21 12:04:06;;;;;;;42.17;2.87;;;;;;;3.40;100.00;99036.63;5109989;28;20626;-74
2022/01/21 12:06:35;;;;;;;44.00;4.07;;;;;;;3.84;100.00;99029.25;5109468;28;21388;-75
2022/01/21 12:09:04;;;;;;;34.93;3.40;;;;;;;3.74;100.00;99023.50;5123900;28;20693;-75
2022/01/21 12:11:37;;;;;;;38.73;2.83;;;;;;;3.37;100.00;99021.16;5120171;28;20592;-74
2022/01/21 12:14:27;;;;;;;24.60;2.50;;;;;;;3.77;100.00;99029.22;5122911;28;21077;-74